Time;durP1;ratioP1;P1;durP2;ratioP2;P2;SDS_P1;SDS_P2;PMS_P1;PMS_P2;Temp;Humidity;BMP_temperature;BMP_pressure;BME280_temperature;BME280_humidity;BME280_pressure;Samples;Min_cycle;Max_cycle;Signal;HPM_P1;HPM_P2
2022/09/25 00:02:24;;;;;;;1.42;1.00;;;18.50;68.90;;;;;;6142749;28;20055;-78
2022/09/25 00:05:25;;;;;;;0.82;0.73;;;18.50;68.90;;;;;;6147985;28;20130;-77
2022/09/25 00:08:26;;;;;;;2.38;0.90;;;18.50;68.80;;;;;;6147500;28;20050;-77
2022/09/25 00:11:31;;;;;;;14.43;1.00;;;18.50;68.70;;;;;;6130891;28;20107;-78
2022/09/25 00:14:32;;;;;;;1.48;0.80;;;18.50;68.60;;;;;;6145768;28;20058;-77
2022/09/25 00:17:33;;;;;;;2.95;1.05;;;18.50;68.50;;;;;;6151535;28;20051;-77
2022/09/25 00:20:36;;;;;;;1.15;0.80;;;18.60;68.50;;;;;;6146660;28;20063;-77
2022/09/25 00:23:38;;;;;;;0.80;0.70;;;18.60;68.60;;;;;;6146567;28;20058;-77
2022/09/25 00:26:41;;;;;;;1.00;0.90;;;18.60;68.40;;;;;;6148743;28;20046;-77
2022/09/25 00:29:42;;;;;;;1.40;0.80;;;18.60;68.30;;;;;;6146884;28;20372;-77
2022/09/25 00:32:43;;;;;;;2.08;1.05;;;18.60;68.20;;;;;;6152330;28;20046;-77
2022/09/25 00:35:44;;;;;;;3.70;1.00;;;18.60;68.20;;;;;;6129914;28;20384;-77
2022/09/25 00:38:47;;;;;;;1.40;0.77;;;18.70;68.20;;;;;;6127850;28;20071;-77
2022/09/25 00:41:48;;;;;;;1.48;0.90;;;18.70;68.20;;;;;;6168332;28;20169;-77
2022/09/25 00:44:57;;;;;;;1.05;0.80;;;18.70;68.10;;;;;;6167893;28;20070;-77
2022/09/25 00:48:01;;;;;;;0.88;0.80;;;18.70;68.00;;;;;;6168958;28;20043;-76
2022/09/25 00:51:04;;;;;;;0.88;0.80;;;18.70;67.90;;;;;;6161539;28;20039;-77
2022/09/25 00:54:06;;;;;;;1.05;0.70;;;18.70;67.80;;;;;;6151733;28;20090;-77
2022/09/25 00:57:13;;;;;;;0.82;0.63;;;18.60;67.50;;;;;;6147213;28;20047;-77
2022/09/25 01:00:15;;;;;;;1.17;1.08;;;18.60;67.60;;;;;;6150063;28;20043;-77
2022/09/25 01:03:17;;;;;;;1.40;0.85;;;18.60;67.60;;;;;;6133536;28;20059;-76
2022/09/25 01:06:18;;;;;;;0.82;0.70;;;18.60;67.70;;;;;;6133179;28;20036;-76
2022/09/25 01:09:19;;;;;;;3.55;0.80;;;18.60;67.60;;;;;;6149281;28;20035;-76
2022/09/25 01:12:21;;;;;;;2.28;0.60;;;18.60;67.50;;;;;;6150284;28;20409;-76
2022/09/25 01:15:39;;;;;;;1.10;0.57;;;18.60;67.50;;;;;;6149467;28;20077;-76
2022/09/25 01:19:12;;;;;;;3.53;0.75;;;18.60;67.60;;;;;;6149085;28;20592;-76
2022/09/25 01:22:34;;;;;;;0.85;0.65;;;18.60;67.50;;;;;;6149566;28;20523;-75
2022/09/25 01:25:56;;;;;;;1.20;0.63;;;18.60;67.40;;;;;;6148360;28;20381;-76
2022/09/25 01:29:15;;;;;;;0.52;0.40;;;18.60;67.20;;;;;;6147751;28;20076;-76
2022/09/25 01:32:27;;;;;;;0.60;0.52;;;18.70;67.20;;;;;;6143157;28;20037;-77
2022/09/25 01:35:36;;;;;;;0.93;0.70;;;18.70;67.10;;;;;;6143976;28;20110;-76
2022/09/25 01:38:40;;;;;;;5.47;0.70;;;18.70;67.00;;;;;;6144796;28;20039;-75
2022/09/25 01:41:51;;;;;;;0.70;0.70;;;18.70;67.00;;;;;;6144518;28;20039;-75
2022/09/25 01:44:55;;;;;;;1.13;0.70;;;18.70;66.90;;;;;;6154634;28;20380;-76
2022/09/25 01:47:59;;;;;;;2.42;1.10;;;18.60;66.90;;;;;;6168615;28;20338;-75
2022/09/25 01:51:09;;;;;;;1.55;0.90;;;18.60;67.00;;;;;;6161921;28;20044;-77
2022/09/25 01:54:15;;;;;;;0.73;0.70;;;18.60;67.00;;;;;;6139462;28;20046;-77
2022/09/25 01:57:24;;;;;;;1.20;0.63;;;18.60;67.10;;;;;;6170566;28;20503;-75
2022/09/25 02:00:26;;;;;;;4.38;0.90;;;18.60;67.10;;;;;;6161279;28;20095;-77
2022/09/25 02:03:34;;;;;;;1.10;0.85;;;18.70;67.20;;;;;;6145785;28;20488;-77
2022/09/25 02:06:37;;;;;;;;;;;18.70;67.20;;;;;;6147537;28;20098;-73
2022/09/25 02:09:51;;;;;;;1.05;0.77;;;18.80;67.00;;;;;;6149045;28;19922;-75
2022/09/25 02:12:57;;;;;;;4.15;0.90;;;18.80;66.80;;;;;;6161789;28;20475;-78
2022/09/25 02:16:07;;;;;;;1.45;0.82;;;18.80;66.80;;;;;;6168742;28;20047;-77
2022/09/25 02:22:34;;;;;;;1.92;1.00;;;18.90;66.80;;;;;;6152095;28;20031;-75
2022/09/25 02:25:51;;;;;;;1.80;0.95;;;18.90;66.80;;;;;;6147349;28;20030;-75
2022/09/25 02:28:52;;;;;;;3.22;1.60;;;18.90;66.90;;;;;;6145766;28;20027;-75
2022/09/25 02:32:02;;;;;;;1.45;0.95;;;19.00;66.90;;;;;;6149267;28;20107;-76
2022/09/25 02:35:03;;;;;;;1.48;1.15;;;19.00;66.90;;;;;;6150011;28;20467;-76
2022/09/25 02:38:05;;;;;;;2.47;1.60;;;19.00;66.80;;;;;;6148644;28;20043;-75
2022/09/25 02:41:17;;;;;;;1.70;1.38;;;19.00;66.80;;;;;;6148856;28;20338;-75
2022/09/25 02:44:28;;;;;;;1.83;1.23;;;19.10;66.80;;;;;;6148386;28;20036;-76
2022/09/25 02:47:43;;;;;;;1.88;0.95;;;19.10;66.60;;;;;;6137895;28;20456;-76
2022/09/25 02:50:51;;;;;;;1.73;1.30;;;19.10;66.50;;;;;;6169143;28;20485;-76
2022/09/25 02:54:07;;;;;;;3.80;2.30;;;19.10;66.40;;;;;;6152286;28;20428;-76
2022/09/25 02:57:27;;;;;;;4.07;1.50;;;19.20;66.40;;;;;;6149768;28;20075;-76
2022/09/25 03:00:28;;;;;;;1.60;1.33;;;19.20;66.30;;;;;;6151381;28;20452;-76
2022/09/25 03:03:32;;;;;;;3.25;1.48;;;19.20;66.30;;;;;;6157322;28;20042;-76
2022/09/25 03:06:33;;;;;;;5.18;1.52;;;19.20;66.60;;;;;;6149394;28;20043;-76
2022/09/25 03:09:38;;;;;;;1.67;0.93;;;19.10;66.80;;;;;;6149233;28;20365;-76
2022/09/25 03:12:39;;;;;;;2.13;1.30;;;19.00;67.00;;;;;;6149540;28;20054;-76
2022/09/25 03:15:44;;;;;;;2.75;1.40;;;19.00;67.30;;;;;;6149315;28;20047;-76
2022/09/25 03:18:46;;;;;;;5.88;1.48;;;18.90;67.30;;;;;;6149359;28;20476;-76
2022/09/25 03:21:49;;;;;;;2.45;1.50;;;18.90;67.60;;;;;;6148358;28;20027;-76
2022/09/25 03:24:50;;;;;;;2.53;1.40;;;18.80;67.80;;;;;;6150064;28;20468;-76
2022/09/25 03:27:51;;;;;;;3.25;1.90;;;18.70;68.10;;;;;;6148010;28;20031;-76
2022/09/25 03:31:01;;;;;;;2.15;0.90;;;18.60;68.40;;;;;;6146595;28;20042;-76
2022/09/25 03:34:02;;;;;;;4.45;1.35;;;18.60;68.80;;;;;;6148986;28;20036;-76
2022/09/25 03:37:03;;;;;;;1.42;1.20;;;18.50;69.10;;;;;;6132295;28;20126;-76
2022/09/25 03:40:05;;;;;;;5.50;1.33;;;18.50;69.30;;;;;;6153476;28;20102;-77
2022/09/25 03:43:06;;;;;;;1.98;1.10;;;18.40;69.50;;;;;;6149655;28;20051;-76
2022/09/25 03:46:11;;;;;;;2.15;1.00;;;18.40;69.80;;;;;;6148536;28;20035;-74
2022/09/25 03:49:12;;;;;;;3.38;1.35;;;18.30;69.80;;;;;;6146250;28;20047;-77
2022/09/25 03:52:13;;;;;;;1.40;0.93;;;18.30;69.80;;;;;;6139609;28;20031;-76
2022/09/25 03:55:15;;;;;;;0.75;0.57;;;18.30;69.90;;;;;;6148087;28;20046;-76
2022/09/25 03:58:16;;;;;;;1.20;0.70;;;18.20;69.90;;;;;;6147773;28;20047;-76
2022/09/25 04:01:18;;;;;;;2.25;1.00;;;18.20;70.00;;;;;;6151302;28;20126;-76
2022/09/25 04:04:19;;;;;;;3.28;0.82;;;18.20;70.00;;;;;;6150917;28;20047;-75
2022/09/25 04:07:21;;;;;;;2.08;1.27;;;18.10;70.10;;;;;;6148044;28;20385;-75
2022/09/25 04:10:22;;;;;;;1.55;0.70;;;18.20;70.30;;;;;;6149638;28;20074;-74
2022/09/25 04:13:25;;;;;;;3.85;0.85;;;18.10;70.20;;;;;;6148215;28;20148;-77
2022/09/25 04:16:28;;;;;;;0.93;0.60;;;18.10;70.10;;;;;;6130909;28;20035;-75
2022/09/25 04:19:29;;;;;;;0.80;0.65;;;18.20;70.00;;;;;;6157281;28;20100;-77
2022/09/25 04:22:30;;;;;;;5.25;0.60;;;18.10;70.00;;;;;;6150916;28;20032;-75
2022/09/25 04:25:31;;;;;;;3.70;0.77;;;18.10;70.00;;;;;;6147966;28;20035;-75
2022/09/25 04:28:33;;;;;;;1.73;0.75;;;18.10;70.10;;;;;;6164619;28;20126;-77
2022/09/25 04:31:34;;;;;;;1.50;0.70;;;18.10;70.10;;;;;;6136581;28;20400;-77
2022/09/25 04:34:35;;;;;;;1.58;1.05;;;18.10;70.20;;;;;;6146473;28;20038;-76
2022/09/25 04:37:36;;;;;;;6.85;0.90;;;18.10;70.20;;;;;;6147985;28;20365;-75
2022/09/25 04:40:37;;;;;;;1.10;0.73;;;18.20;70.30;;;;;;6149030;28;20464;-77
2022/09/25 04:43:40;;;;;;;1.25;0.80;;;18.10;70.20;;;;;;6148715;28;20456;-77
2022/09/25 04:46:41;;;;;;;1.42;0.57;;;18.20;70.20;;;;;;6164440;28;20063;-75
2022/09/25 04:49:42;;;;;;;0.85;0.60;;;18.20;70.10;;;;;;6149662;28;20431;-77
2022/09/25 04:52:44;;;;;;;1.08;0.70;;;18.20;70.10;;;;;;6148129;28;20058;-76
2022/09/25 04:55:46;;;;;;;4.03;1.17;;;18.20;70.10;;;;;;6148092;28;20393;-75
2022/09/25 04:58:49;;;;;;;0.90;0.70;;;18.30;70.20;;;;;;6132518;28;20091;-75
2022/09/25 05:01:50;;;;;;;2.53;0.80;;;18.30;70.10;;;;;;6142792;28;20027;-75
2022/09/25 05:04:51;;;;;;;1.00;0.80;;;18.20;70.10;;;;;;6161006;28;20035;-75
2022/09/25 05:07:55;;;;;;;4.95;1.10;;;18.20;70.30;;;;;;6143464;28;20027;-76
2022/09/25 05:10:56;;;;;;;1.02;0.80;;;18.20;70.40;;;;;;6148194;28;20039;-76
2022/09/25 05:13:57;;;;;;;4.30;1.17;;;18.20;70.60;;;;;;6130898;28;20065;-76
2022/09/25 05:16:58;;;;;;;1.02;0.80;;;18.20;70.50;;;;;;6147001;28;20058;-77
2022/09/25 05:20:02;;;;;;;1.33;1.00;;;18.30;70.60;;;;;;6129579;28;20456;-75
2022/09/25 05:23:03;;;;;;;0.98;0.68;;;18.30;70.60;;;;;;6145255;28;20389;-77
2022/09/25 05:26:04;;;;;;;1.20;0.90;;;18.30;70.50;;;;;;6173985;28;20039;-76
2022/09/25 05:29:05;;;;;;;1.25;0.90;;;18.40;70.60;;;;;;6145492;28;20543;-77
2022/09/25 05:32:06;;;;;;;3.40;1.17;;;18.40;70.40;;;;;;6129863;28;20036;-76
2022/09/25 05:35:07;;;;;;;2.03;1.40;;;18.50;70.30;;;;;;6149144;28;20445;-76
2022/09/25 05:38:08;;;;;;;5.75;0.90;;;18.50;70.20;;;;;;6122592;28;20129;-76
2022/09/25 05:41:10;;;;;;;1.13;0.80;;;18.50;70.10;;;;;;6150150;28;20043;-76
2022/09/25 05:44:14;;;;;;;1.90;1.00;;;18.50;70.00;;;;;;6149336;28;20035;-78
2022/09/25 05:47:15;;;;;;;1.00;0.88;;;18.50;69.80;;;;;;6150985;28;20054;-75
2022/09/25 05:50:16;;;;;;;1.25;0.90;;;18.50;69.90;;;;;;6132826;28;20039;-75
2022/09/25 05:53:17;;;;;;;1.90;1.40;;;18.50;69.90;;;;;;6151304;28;20472;-76
2022/09/25 05:56:18;;;;;;;1.20;1.02;;;18.50;69.90;;;;;;6153203;28;20111;-75
2022/09/25 05:59:19;;;;;;;1.30;1.05;;;18.50;69.90;;;;;;6145246;28;20047;-75
2022/09/25 06:02:20;;;;;;;1.45;1.20;;;18.50;69.90;;;;;;6160427;28;20036;-75
2022/09/25 06:05:21;;;;;;;1.58;1.30;;;18.50;69.90;;;;;;6149799;28;20086;-76
2022/09/25 06:08:22;;;;;;;1.65;1.15;;;18.50;69.90;;;;;;6151495;28;20113;-76
2022/09/25 06:11:23;;;;;;;1.30;1.10;;;18.50;70.60;;;;;;6152136;28;20474;-76
2022/09/25 06:14:24;;;;;;;1.70;1.00;;;18.50;69.90;;;;;;6151511;28;20047;-75
2022/09/25 06:17:25;;;;;;;2.85;1.20;;;18.50;69.80;;;;;;6151091;28;20480;-75
2022/09/25 06:20:26;;;;;;;1.30;1.08;;;18.50;69.70;;;;;;6149621;28;20118;-75
2022/09/25 06:23:28;;;;;;;1.23;0.80;;;18.50;69.70;;;;;;6150336;28;20031;-75
2022/09/25 06:26:29;;;;;;;1.65;1.08;;;18.50;69.70;;;;;;6151759;28;20031;-75
2022/09/25 06:29:30;;;;;;;3.25;1.13;;;18.50;69.70;;;;;;6152957;28;20042;-76
2022/09/25 06:32:31;;;;;;;2.28;1.02;;;18.50;69.80;;;;;;6168014;28;20051;-76
2022/09/25 06:35:35;;;;;;;2.88;1.48;;;18.50;69.50;;;;;;6152838;28;20036;-75
2022/09/25 06:38:36;;;;;;;2.05;1.58;;;18.60;69.50;;;;;;6151664;28;20118;-75
2022/09/25 06:41:38;;;;;;;1.35;1.10;;;18.60;69.30;;;;;;6153918;28;20050;-75
2022/09/25 06:44:39;;;;;;;2.20;1.50;;;18.70;69.20;;;;;;6153192;28;20094;-75
2022/09/25 06:47:40;;;;;;;1.77;1.20;;;18.70;69.00;;;;;;6153639;28;20079;-75
2022/09/25 06:50:53;;;;;;;3.92;1.30;;;18.70;68.80;;;;;;6173060;28;20455;-75
2022/09/25 06:53:54;;;;;;;1.73;1.40;;;18.80;68.90;;;;;;6160040;28;20186;-75
2022/09/25 06:56:55;;;;;;;2.80;1.35;;;18.90;68.70;;;;;;6173744;28;20035;-77
2022/09/25 06:59:56;;;;;;;2.20;1.30;;;18.90;68.50;;;;;;6169257;28;20476;-77
2022/09/25 07:06:36;;;;;;;3.13;1.45;;;18.90;68.50;;;;;;6057092;29;20055;-76
2022/09/25 07:09:37;;;;;;;2.20;1.33;;;19.00;68.50;;;;;;6068744;29;20068;-76
2022/09/25 07:12:39;;;;;;;1.80;1.50;;;19.00;68.50;;;;;;6072212;29;20056;-75
2022/09/25 07:15:40;;;;;;;1.90;1.35;;;18.90;68.40;;;;;;6088403;29;20075;-76
2022/09/25 07:18:45;;;;;;;1.85;1.23;;;19.00;68.60;;;;;;6064140;29;20419;-77
2022/09/25 07:21:46;;;;;;;2.72;1.40;;;19.00;68.60;;;;;;6056496;29;20044;-77
2022/09/25 07:24:47;;;;;;;2.78;1.58;;;19.00;68.60;;;;;;6070148;29;20056;-76
2022/09/25 07:27:48;;;;;;;2.25;1.20;;;19.00;68.60;;;;;;6081973;29;20056;-76
2022/09/25 07:30:49;;;;;;;3.38;1.58;;;19.10;68.50;;;;;;6075529;29;20482;-74
2022/09/25 07:33:51;;;;;;;1.75;1.33;;;19.20;68.40;;;;;;6090770;29;20071;-76
2022/09/25 07:36:54;;;;;;;2.80;1.52;;;19.30;68.20;;;;;;6059341;29;20056;-75
2022/09/25 07:39:57;;;;;;;1.60;1.50;;;19.40;68.00;;;;;;6089186;28;20041;-76
2022/09/25 07:43:06;;;;;;;3.70;1.63;;;19.40;67.90;;;;;;6147665;28;20118;-78
2022/09/25 07:46:06;;;;;;;3.63;1.50;;;19.40;67.70;;;;;;6179923;28;20045;-75
2022/09/25 07:49:08;;;;;;;2.45;1.70;;;19.50;67.60;;;;;;6164791;28;20411;-77
2022/09/25 07:52:09;;;;;;;2.33;1.42;;;19.50;67.40;;;;;;6149810;28;20031;-76
2022/09/25 07:55:10;;;;;;;7.68;1.98;;;19.50;67.30;;;;;;6154395;28;20415;-76
2022/09/25 07:58:11;;;;;;;3.15;1.70;;;19.50;66.90;;;;;;6140366;28;20102;-76
2022/09/25 08:01:12;;;;;;;1.33;1.10;;;19.40;66.50;;;;;;6157391;28;20042;-76
2022/09/25 08:04:13;;;;;;;4.93;1.33;;;19.40;66.40;;;;;;6136273;28;20473;-76
2022/09/25 08:07:18;;;;;;;1.98;1.35;;;19.30;66.40;;;;;;6133329;28;20034;-76
2022/09/25 08:10:19;;;;;;;2.25;1.50;;;19.20;66.40;;;;;;6135860;28;20059;-76
2022/09/25 08:13:21;;;;;;;2.13;1.60;;;19.10;66.30;;;;;;6131240;28;20462;-77
2022/09/25 08:16:22;;;;;;;2.45;1.60;;;19.00;66.50;;;;;;6129148;28;20126;-77
2022/09/25 08:19:23;;;;;;;1.42;1.23;;;18.90;66.80;;;;;;6156565;28;20118;-75
2022/09/25 08:22:24;;;;;;;4.20;1.42;;;18.70;67.00;;;;;;6147484;28;20364;-75
2022/09/25 08:25:25;;;;;;;4.38;2.10;;;18.70;67.30;;;;;;6162626;28;20464;-76
2022/09/25 08:28:28;;;;;;;1.80;1.33;;;18.70;67.60;;;;;;6164574;28;20035;-75
2022/09/25 08:31:29;;;;;;;1.67;1.25;;;18.70;67.60;;;;;;6131030;28;20566;-75
2022/09/25 08:34:30;;;;;;;1.67;1.40;;;18.70;67.60;;;;;;6147642;28;20070;-75
2022/09/25 08:37:31;;;;;;;4.32;1.50;;;18.70;67.60;;;;;;6148294;28;20039;-76
2022/09/25 08:40:36;;;;;;;5.10;1.80;;;18.70;67.60;;;;;;6149761;28;20031;-76
2022/09/25 08:43:49;;;;;;;7.43;2.83;;;18.80;67.80;;;;;;6150797;28;20126;-76
2022/09/25 08:50:21;;;;;;;2.88;1.70;;;19.00;68.00;;;;;;6173517;28;20487;-78
2022/09/25 08:53:25;;;;;;;1.90;1.50;;;19.00;67.90;;;;;;6150879;28;20469;-76
2022/09/25 08:56:28;;;;;;;2.63;1.58;;;19.10;67.90;;;;;;6142407;28;20536;-76
2022/09/25 08:59:46;;;;;;;3.75;2.30;;;19.10;67.80;;;;;;6147307;28;20114;-76
2022/09/25 09:02:52;;;;;;;;;;;19.20;67.90;;;;;;6146280;28;20479;-76
2022/09/25 09:06:09;;;;;;;2.80;1.70;;;19.30;67.80;;;;;;6147031;28;19949;-76
2022/09/25 09:09:43;;;;;;;6.53;1.98;;;19.30;67.60;;;;;;6145087;28;20043;-76
2022/09/25 09:12:50;;;;;;;5.40;2.22;;;19.50;67.70;;;;;;6134555;28;20031;-76
2022/09/25 09:16:15;;;;;;;3.95;1.90;;;19.70;67.40;;;;;;6147375;28;20126;-76
2022/09/25 09:19:16;;;;;;;3.55;1.80;;;19.80;66.90;;;;;;6147261;28;20074;-76
2022/09/25 09:22:25;;;;;;;2.67;1.88;;;20.00;66.20;;;;;;6148112;28;20035;-76
2022/09/25 09:26:07;;;;;;;3.47;2.10;;;20.10;65.70;;;;;;6164899;28;20094;-76
2022/09/25 09:29:37;;;;;;;2.95;2.00;;;20.30;65.50;;;;;;6141841;28;20043;-77
2022/09/25 09:33:00;;;;;;;2.72;1.42;;;20.40;65.10;;;;;;6117682;28;20059;-76
2022/09/25 09:36:20;;;;;;;1.60;1.15;;;20.40;64.60;;;;;;6140278;28;20050;-76
2022/09/25 09:39:30;;;;;;;1.58;1.00;;;20.50;64.20;;;;;;6141635;28;20039;-77
2022/09/25 09:43:10;;;;;;;1.70;1.10;;;20.40;63.60;;;;;;6154080;28;20492;-76
2022/09/25 09:46:20;;;;;;;3.25;0.60;;;20.40;62.60;;;;;;6171455;28;20049;-77
2022/09/25 09:49:46;;;;;;;2.58;0.70;;;20.40;62.20;;;;;;6165268;28;20030;-76
2022/09/25 09:52:52;;;;;;;2.15;1.00;;;20.30;62.00;;;;;;6159710;28;20118;-76
2022/09/25 09:56:08;;;;;;;1.15;1.00;;;20.30;62.10;;;;;;6151768;28;20028;-76
2022/09/25 09:59:46;;;;;;;4.82;2.15;;;20.30;63.20;;;;;;6166002;28;20034;-77
2022/09/25 10:03:01;;;;;;;6.45;3.30;;;20.30;62.50;;;;;;6149238;28;20046;-75
2022/09/25 10:06:10;;;;;;;1.90;1.35;;;20.30;62.70;;;;;;6170137;28;20066;-76
2022/09/25 10:09:14;;;;;;;2.70;1.58;;;20.40;62.70;;;;;;6104534;28;20038;-76
2022/09/25 10:12:25;;;;;;;1.38;1.00;;;20.40;62.40;;;;;;6148793;28;20035;-76
2022/09/25 10:15:31;;;;;;;3.20;1.95;;;20.30;62.40;;;;;;6148929;28;20027;-76
2022/09/25 10:18:39;;;;;;;9.23;4.60;;;20.30;62.50;;;;;;6143849;28;20376;-76
2022/09/25 10:21:48;;;;;;;14.13;4.55;;;20.30;62.50;;;;;;6127196;28;20174;-77
2022/09/25 10:24:54;;;;;;;10.23;3.42;;;20.40;62.70;;;;;;6149141;28;20113;-77
2022/09/25 10:27:55;;;;;;;8.38;2.75;;;20.40;62.50;;;;;;6134002;28;20097;-76
2022/09/25 10:30:57;;;;;;;3.38;1.75;;;20.60;62.50;;;;;;6133843;28;20487;-75
2022/09/25 10:34:20;;;;;;;3.10;1.35;;;20.70;63.00;;;;;;6150036;28;20058;-76
2022/09/25 10:37:21;;;;;;;3.22;1.10;;;20.90;61.60;;;;;;6132546;28;20043;-76
2022/09/25 10:40:30;;;;;;;3.65;1.17;;;21.20;61.00;;;;;;6133388;28;20039;-75
2022/09/25 10:43:31;;;;;;;3.55;1.35;;;21.40;60.10;;;;;;6133425;28;20106;-76
2022/09/25 10:50:11;;;;;;;2.78;1.48;;;21.60;59.20;;;;;;6149426;28;20032;-77
2022/09/25 10:53:41;;;;;;;1.42;1.10;;;21.60;59.20;;;;;;6148274;28;20055;-77
2022/09/25 10:56:42;;;;;;;6.75;1.30;;;21.60;59.20;;;;;;6071369;29;20044;-77
2022/09/25 10:59:50;;;;;;;1.77;1.10;;;21.60;59.10;;;;;;6059114;29;20040;-77
2022/09/25 11:03:04;;;;;;;3.92;1.30;;;21.50;59.10;;;;;;6055108;29;20037;-77
2022/09/25 11:06:09;;;;;;;5.07;1.52;;;21.50;59.70;;;;;;6074130;29;20085;-76
2022/09/25 11:09:20;;;;;;;3.03;1.17;;;21.40;59.10;;;;;;6057830;29;20627;-77
2022/09/25 11:12:24;;;;;;;1.95;1.35;;;21.40;59.10;;;;;;6058745;29;20040;-76
2022/09/25 11:15:26;;;;;;;2.30;1.20;;;21.50;59.10;;;;;;6071880;29;20044;-76
2022/09/25 11:18:49;;;;;;;2.38;1.40;;;21.50;59.10;;;;;;6076611;29;20232;-77
2022/09/25 11:22:14;;;;;;;1.77;1.25;;;21.50;59.00;;;;;;6070021;29;20385;-75
2022/09/25 11:25:27;;;;;;;1.00;0.90;;;21.50;59.00;;;;;;6074731;29;20036;-75
2022/09/25 11:28:48;;;;;;;1.73;1.27;;;21.40;58.90;;;;;;6069931;29;20037;-75
2022/09/25 11:32:03;;;;;;;1.42;1.00;;;21.40;58.90;;;;;;6082901;28;20035;-76
2022/09/25 11:35:29;;;;;;;2.22;1.55;;;21.40;58.50;;;;;;6153696;28;20473;-76
2022/09/25 11:42:13;;;;;;;1.52;1.00;;;21.40;58.40;;;;;;6146591;28;20042;-77
2022/09/25 11:45:38;;;;;;;1.60;1.25;;;21.40;58.40;;;;;;6147803;28;20042;-76
2022/09/25 11:49:14;;;;;;;1.27;1.00;;;21.40;58.20;;;;;;6145822;28;20039;-76
2022/09/25 11:52:41;;;;;;;1.10;0.93;;;21.40;58.20;;;;;;6058772;29;20032;-76
2022/09/25 11:56:05;;;;;;;2.42;0.90;;;21.50;58.20;;;;;;6072583;29;20036;-76
2022/09/25 11:59:37;;;;;;;1.67;1.10;;;21.50;58.10;;;;;;6083138;29;20036;-76
2022/09/25 12:02:56;;;;;;;1.42;0.98;;;21.50;58.10;;;;;;6076633;29;20115;-76
2022/09/25 12:05:57;;;;;;;1.65;1.25;;;21.60;58.10;;;;;;6040550;29;20066;-76
2022/09/25 12:09:25;;;;;;;1.95;1.30;;;21.70;58.00;;;;;;6070557;29;20045;-76
2022/09/25 12:12:46;;;;;;;3.95;1.30;;;21.70;57.90;;;;;;6074105;29;20384;-75
2022/09/25 12:16:12;;;;;;;1.92;1.13;;;21.80;57.80;;;;;;5989191;29;20157;-78
2022/09/25 12:19:16;;;;;;;2.70;1.30;;;21.90;57.60;;;;;;6005046;29;20087;-76
2022/09/25 12:22:26;;;;;;;2.03;1.20;;;22.00;57.30;;;;;;6024908;29;20045;-75
2022/09/25 12:25:29;;;;;;;0.80;0.77;;;22.00;57.20;;;;;;6005270;29;20102;-76
2022/09/25 12:28:40;;;;;;;3.00;1.00;;;22.10;57.00;;;;;;6038603;29;20037;-75
2022/09/25 12:31:41;;;;;;;1.63;1.15;;;22.00;56.90;;;;;;6065701;29;20176;-75
2022/09/25 12:35:09;;;;;;;4.72;1.38;;;22.00;57.00;;;;;;6051137;29;20217;-75
2022/09/25 12:38:16;;;;;;;2.42;1.05;;;22.10;57.00;;;;;;6050041;29;20130;-75
2022/09/25 12:41:40;;;;;;;2.00;1.10;;;22.10;56.80;;;;;;6051074;29;20049;-75
2022/09/25 12:44:55;;;;;;;3.03;1.77;;;22.30;56.60;;;;;;6036231;29;20103;-75
2022/09/25 12:48:15;;;;;;;5.05;1.67;;;22.50;56.20;;;;;;6049319;29;20032;-75
2022/09/25 12:51:33;;;;;;;1.00;0.90;;;22.70;55.90;;;;;;6072057;28;20060;-76
2022/09/25 12:55:06;;;;;;;0.70;0.70;;;23.10;55.40;;;;;;6143687;28;20188;-75
2022/09/25 12:58:32;;;;;;;0.60;0.60;;;23.60;54.50;;;;;;6162490;28;20377;-75
2022/09/25 13:02:02;;;;;;;2.22;0.90;;;24.20;53.30;;;;;;6149628;28;20093;-76
2022/09/25 13:05:20;;;;;;;0.80;0.60;;;24.70;52.10;;;;;;6128565;28;20058;-75
2022/09/25 13:08:28;;;;;;;1.25;0.88;;;24.90;51.50;;;;;;6142324;28;20485;-76
2022/09/25 13:11:44;;;;;;;1.48;0.88;;;24.70;51.30;;;;;;6143398;28;20377;-76
2022/09/25 13:14:58;;;;;;;0.88;0.88;;;24.70;51.10;;;;;;6145318;28;20050;-75
2022/09/25 13:18:02;;;;;;;1.80;0.90;;;24.70;50.90;;;;;;6145779;28;20070;-77
2022/09/25 13:21:24;;;;;;;4.32;0.77;;;24.80;50.40;;;;;;6127908;28;20091;-75
2022/09/25 13:24:26;;;;;;;1.42;0.68;;;25.00;49.80;;;;;;6144683;28;20460;-77
2022/09/25 13:27:36;;;;;;;0.80;0.80;;;25.10;49.40;;;;;;6144104;28;20086;-77
2022/09/25 13:30:37;;;;;;;1.00;0.85;;;25.00;48.70;;;;;;6136658;28;20540;-75
2022/09/25 13:33:44;;;;;;;1.00;0.77;;;24.90;48.50;;;;;;6158698;28;20130;-75
2022/09/25 13:36:46;;;;;;;1.98;0.93;;;24.70;48.70;;;;;;6166948;28;20189;-75
2022/09/25 13:43:23;;;;;;;1.45;1.25;;;24.50;48.90;;;;;;6142120;28;20039;-76
2022/09/25 13:46:24;;;;;;;2.55;1.48;;;24.30;48.90;;;;;;6130620;28;20047;-77
2022/09/25 13:49:34;;;;;;;1.45;1.02;;;24.00;49.20;;;;;;6131173;28;20110;-77
2022/09/25 13:52:35;;;;;;;1.50;1.10;;;23.80;49.80;;;;;;6161734;28;20027;-76
2022/09/25 13:55:40;;;;;;;2.35;1.00;;;23.70;49.90;;;;;;6162953;28;20059;-77
2022/09/25 13:59:06;;;;;;;3.80;1.63;;;23.50;49.90;;;;;;6166052;28;20046;-76
2022/09/25 14:02:39;;;;;;;2.67;1.27;;;23.40;50.10;;;;;;6150630;28;20047;-76
2022/09/25 14:05:41;;;;;;;2.20;1.27;;;23.40;50.20;;;;;;6163150;28;20137;-75
2022/09/25 14:08:43;;;;;;;1.17;1.08;;;23.20;50.40;;;;;;6156930;28;20125;-76
2022/09/25 14:12:03;;;;;;;3.83;1.13;;;23.20;50.70;;;;;;6149428;28;20077;-75
2022/09/25 14:15:12;;;;;;;6.32;1.33;;;23.20;50.70;;;;;;6145125;28;20053;-77
2022/09/25 14:18:21;;;;;;;4.53;1.40;;;23.20;50.70;;;;;;6124645;28;20046;-77
2022/09/25 14:21:25;;;;;;;1.10;0.90;;;23.20;50.70;;;;;;6162170;28;20050;-76
2022/09/25 14:24:28;;;;;;;0.82;0.82;;;23.40;50.80;;;;;;6145564;28;20039;-76
2022/09/25 14:27:29;;;;;;;2.47;1.25;;;23.40;50.50;;;;;;6130386;28;20043;-77
2022/09/25 14:30:31;;;;;;;2.20;1.50;;;23.50;50.20;;;;;;6162875;28;20117;-78
2022/09/25 14:33:42;;;;;;;1.02;0.90;;;23.50;50.10;;;;;;6154599;28;21119;-78
2022/09/25 14:37:17;;;;;;;1.30;1.15;;;23.50;49.70;;;;;;6147206;28;20043;-76
2022/09/25 14:40:33;;;;;;;3.85;1.27;;;23.50;49.70;;;;;;6149507;28;20035;-76
2022/09/25 14:44:18;;;;;;;1.98;1.30;;;23.40;49.40;;;;;;6148386;28;20476;-76
2022/09/25 14:47:19;;;;;;;1.08;0.90;;;23.40;49.60;;;;;;6080460;29;20418;-76
2022/09/25 14:50:24;;;;;;;2.72;1.10;;;23.30;49.60;;;;;;6081911;29;20039;-76
2022/09/25 14:53:37;;;;;;;2.40;1.40;;;23.20;50.00;;;;;;6081055;29;20052;-75
2022/09/25 14:56:47;;;;;;;2.25;1.25;;;23.10;50.30;;;;;;6091204;29;20048;-75
2022/09/25 14:59:59;;;;;;;1.83;0.98;;;23.00;50.40;;;;;;6077402;29;20462;-75
2022/09/25 15:03:01;;;;;;;8.05;1.00;;;23.00;50.40;;;;;;6091005;29;20046;-75
2022/09/25 15:06:02;;;;;;;2.13;0.80;;;22.90;50.20;;;;;;6071338;29;20393;-75
2022/09/25 15:09:36;;;;;;;1.63;1.02;;;22.80;50.00;;;;;;6098711;29;20040;-74
2022/09/25 15:12:44;;;;;;;1.42;1.05;;;22.80;49.40;;;;;;6095831;29;20385;-74
2022/09/25 15:19:24;;;;;;;1.15;1.00;;;22.80;48.90;;;;;;6073700;29;20036;-74
2022/09/25 15:22:33;;;;;;;1.25;0.90;;;22.80;48.70;;;;;;6100769;28;20035;-75
2022/09/25 15:25:43;;;;;;;0.90;0.73;;;22.80;48.60;;;;;;6158173;28;20488;-75
2022/09/25 15:28:45;;;;;;;0.80;0.75;;;22.80;48.60;;;;;;6155622;28;20039;-75
2022/09/25 15:31:51;;;;;;;1.00;0.85;;;22.70;48.80;;;;;;6161024;28;20034;-75
2022/09/25 15:35:14;;;;;;;1.20;0.77;;;22.60;48.90;;;;;;6159908;28;20119;-74
2022/09/25 15:38:17;;;;;;;0.77;0.70;;;22.50;49.30;;;;;;6160069;28;20075;-75
2022/09/25 15:41:20;;;;;;;1.02;0.68;;;22.40;49.50;;;;;;6166177;28;20043;-75
2022/09/25 15:44:23;;;;;;;1.02;0.80;;;22.30;49.70;;;;;;6148500;28;20105;-75
2022/09/25 15:47:36;;;;;;;1.65;0.90;;;22.30;49.70;;;;;;6160806;28;20484;-75
2022/09/25 15:50:42;;;;;;;1.00;0.63;;;22.30;49.60;;;;;;6139283;28;20039;-77
2022/09/25 15:53:54;;;;;;;1.00;0.85;;;22.40;49.30;;;;;;6147523;28;20035;-76
2022/09/25 15:56:57;;;;;;;1.63;0.60;;;22.40;49.30;;;;;;6146862;28;20368;-75
2022/09/25 16:06:48;;;;;;;2.15;1.20;;;22.40;49.70;;;;;;6148665;28;20574;-76
2022/09/25 16:09:54;;;;;;;1.17;1.05;;;22.40;50.30;;;;;;6159096;28;20043;-76
2022/09/25 16:12:56;;;;;;;2.20;1.05;;;22.40;50.90;;;;;;6161202;28;20047;-76
2022/09/25 16:15:59;;;;;;;2.40;1.10;;;22.30;51.20;;;;;;6168600;28;20034;-76
2022/09/25 16:19:39;;;;;;;1.70;1.30;;;22.30;51.40;;;;;;6156236;28;20439;-76
2022/09/25 16:23:14;;;;;;;2.42;1.63;;;22.20;51.70;;;;;;6056020;29;20051;-76
2022/09/25 16:26:34;;;;;;;6.65;1.50;;;22.20;52.00;;;;;;5979331;29;20045;-76
2022/09/25 16:29:38;;;;;;;2.60;1.10;;;22.00;52.30;;;;;;6109729;29;20031;-76
2022/09/25 16:32:43;;;;;;;7.18;1.10;;;22.00;52.60;;;;;;6109456;29;20139;-75
2022/09/25 16:35:47;;;;;;;3.58;1.52;;;21.90;52.70;;;;;;6094408;29;20059;-74
2022/09/25 16:39:08;;;;;;;4.30;1.63;;;21.90;52.80;;;;;;6096527;29;20561;-74
2022/09/25 16:42:30;;;;;;;2.10;1.25;;;21.80;52.90;;;;;;6103746;29;20090;-74
2022/09/25 16:45:33;;;;;;;1.55;0.98;;;21.70;53.00;;;;;;6106218;29;20064;-74
2022/09/25 16:48:38;;;;;;;2.45;1.67;;;21.60;52.90;;;;;;6088406;29;20051;-74
2022/09/25 16:51:44;;;;;;;4.03;1.52;;;21.50;52.90;;;;;;6107372;28;20058;-74